Observation data for Dora on 03/11/2018      Previous  Date  Next       Current Mesonet Observations  Soil Data  Daily Summary Page  Observations in Plain Language
KDR1 110600Z 03026G34KT 11/M07 A3005 RMK A01 T01121074  RH  027%=      5-min Rain = 0
KDR1 110605Z 03022G30KT 11/M07 A3006 RMK A01 T01091073  RH  027%=      5-min Rain = 0
KDR1 110610Z 01016G22KT 11/M07 A3007 RMK A01 T01051074  RH  028%=      5-min Rain = 0
KDR1 110615Z 02017G22KT 10/M07 A3007 RMK A01 T01031073  RH  029%=      5-min Rain = 0
KDR1 110620Z 02022G29KT 10/M07 A3008 RMK A01 T01031072  RH  029%=      5-min Rain = 0
KDR1 110625Z 02017G24KT 10/M07 A3008 RMK A01 T01001072  RH  029%=      5-min Rain = 0
KDR1 110630Z 03025G36KT 10/M07 A3008 RMK A01 T00991073  RH  029%=      5-min Rain = 0
KDR1 110635Z 03024G31KT 10/M07 A3008 RMK A01 T00981074  RH  029%=      5-min Rain = 0
KDR1 110640Z 03021G29KT 10/M08 A3008 RMK A01 T00951075  RH  030%=      5-min Rain = 0
KDR1 110645Z 03022G30KT 10/M08 A3008 RMK A01 T00951075  RH  030%=      5-min Rain = 0
KDR1 110650Z 03020G28KT 09/M08 A3009 RMK A01 T00941076  RH  030%=      5-min Rain = 0
KDR1 110655Z 03020G26KT 09/M08 A3008 RMK A01 T00921076  RH  030%=      5-min Rain = 0
KDR1 110700Z 03021G27KT 09/M08 A3008 RMK A01 T00921076  RH  030%=      5-min Rain = 0
KDR1 110705Z 03020G27KT 09/M08 A3009 RMK A01 T00911076  RH  030%=      5-min Rain = 0
KDR1 110710Z 03021KT 09/M08 A3008 RMK A01 T00901076  RH  031%=      5-min Rain = 0
KDR1 110715Z 03022G28KT 09/M08 A3009 RMK A01 T00891075  RH  031%=      5-min Rain = 0
KDR1 110720Z 02021G26KT 09/M07 A3009 RMK A01 T00871074  RH  032%=      5-min Rain = 0
KDR1 110725Z 03022G32KT 09/M07 A3009 RMK A01 T00861073  RH  032%=      5-min Rain = 0
KDR1 110730Z 03024G33KT 09/M07 A3009 RMK A01 T00851071  RH  033%=      5-min Rain = 0
KDR1 110735Z 03023G31KT 08/M07 A301 RMK A01 T00841070  RH  033%=      5-min Rain = 0
KDR1 110740Z 03021G28KT 08/M07 A301 RMK A01 T00821070  RH  034%=      5-min Rain = 0
KDR1 110745Z 02019G25KT 08/M07 A301 RMK A01 T00801070  RH  034%=      5-min Rain = 0
KDR1 110750Z 02022G29KT 08/M07 A301 RMK A01 T00801070  RH  034%=      5-min Rain = 0
KDR1 110755Z 03021G29KT 08/M07 A3011 RMK A01 T00791071  RH  034%=      5-min Rain = 0
KDR1 110800Z 02020G30KT 08/M07 A3011 RMK A01 T00791072  RH  034%=      5-min Rain = 0
KDR1 110805Z 03022G33KT 08/M07 A3011 RMK A01 T00781072  RH  034%=      5-min Rain = 0
KDR1 110810Z 03025G32KT 08/M07 A3011 RMK A01 T00781073  RH  034%=      5-min Rain = 0
KDR1 110815Z 03025G32KT 08/M07 A3012 RMK A01 T00781073  RH  034%=      5-min Rain = 0
KDR1 110820Z 03024G33KT 08/M07 A3011 RMK A01 T00771074  RH  034%=      5-min Rain = 0
KDR1 110825Z 03021G28KT 08/M07 A3012 RMK A01 T00751074  RH  034%=      5-min Rain = 0
KDR1 110830Z 03017G23KT 07/M07 A3012 RMK A01 T00741074  RH  035%=      5-min Rain = 0
KDR1 110835Z 03015G20KT 07/M07 A3012 RMK A01 T00721073  RH  035%=      5-min Rain = 0
KDR1 110840Z 03015G20KT 07/M07 A3012 RMK A01 T00721073  RH  035%=      5-min Rain = 0
KDR1 110845Z 03016G23KT 07/M07 A3012 RMK A01 T00721073  RH  035%=      5-min Rain = 0
KDR1 110850Z 03016G22KT 07/M07 A3012 RMK A01 T00731073  RH  035%=      5-min Rain = 0
KDR1 110855Z 03014G19KT 07/M07 A3012 RMK A01 T00711073  RH  035%=      5-min Rain = 0
KDR1 110900Z 03016G21KT 07/M07 A3012 RMK A01 T00731073  RH  035%=      5-min Rain = 0
KDR1 110905Z 03014KT 07/M07 A3012 RMK A01 T00741073  RH  035%=      5-min Rain = 0
KDR1 110910Z 03015KT 08/M07 A3012 RMK A01 T00751073  RH  035%=      5-min Rain = 0
KDR1 110915Z 03014G20KT 07/M07 A3012 RMK A01 T00741073  RH  035%=      5-min Rain = 0
KDR1 110920Z 03014KT 07/M07 A3012 RMK A01 T00741074  RH  035%=      5-min Rain = 0
KDR1 110925Z 03016KT 07/M07 A3013 RMK A01 T00741074  RH  034%=      5-min Rain = 0
KDR1 110930Z 03016KT 07/M08 A3012 RMK A01 T00741075  RH  034%=      5-min Rain = 0
KDR1 110935Z 03015G21KT 07/M08 A3012 RMK A01 T00741075  RH  034%=      5-min Rain = 0
KDR1 110940Z 03015G23KT 07/M08 A3013 RMK A01 T00741075  RH  034%=      5-min Rain = 0
KDR1 110945Z 03016KT 07/M08 A3013 RMK A01 T00741076  RH  034%=      5-min Rain = 0
KDR1 110950Z 03016G23KT 07/M08 A3013 RMK A01 T00741077  RH  034%=      5-min Rain = 0
KDR1 110955Z 03015G21KT 07/M08 A3013 RMK A01 T00741077  RH  034%=      5-min Rain = 0
KDR1 111000Z 03015G21KT 07/M08 A3013 RMK A01 T00731078  RH  034%=      5-min Rain = 0
KDR1 111005Z 03017KT 07/M08 A3013 RMK A01 T00731079  RH  033%=      5-min Rain = 0
KDR1 111010Z 03016KT 07/M08 A3013 RMK A01 T00721079  RH  033%=      5-min Rain = 0
KDR1 111015Z 03017G24KT 07/M08 A3013 RMK A01 T00721081  RH  033%=      5-min Rain = 0
KDR1 111020Z 03017G24KT 07/M08 A3013 RMK A01 T00711081  RH  033%=      5-min Rain = 0
KDR1 111025Z 03020G25KT 07/M08 A3013 RMK A01 T00711082  RH  033%=      5-min Rain = 0
KDR1 111030Z 03017G23KT 07/M08 A3013 RMK A01 T00711082  RH  033%=      5-min Rain = 0
KDR1 111035Z 03019G24KT 07/M08 A3013 RMK A01 T00711083  RH  033%=      5-min Rain = 0
KDR1 111040Z 03021KT 07/M08 A3014 RMK A01 T00711084  RH  033%=      5-min Rain = 0
KDR1 111045Z 03018G24KT 07/M08 A3014 RMK A01 T00701084  RH  033%=      5-min Rain = 0
KDR1 111050Z 04019G28KT 07/M09 A3014 RMK A01 T00691085  RH  033%=      5-min Rain = 0
KDR1 111055Z 04019G26KT 07/M09 A3015 RMK A01 T00691085  RH  033%=      5-min Rain = 0
KDR1 111100Z 04019G26KT 07/M09 A3015 RMK A01 T00681086  RH  033%=      5-min Rain = 0
KDR1 111105Z 04020G27KT 07/M09 A3015 RMK A01 T00671087  RH  033%=      5-min Rain = 0
KDR1 111110Z 04020G26KT 07/M09 A3015 RMK A01 T00671087  RH  033%=      5-min Rain = 0
KDR1 111115Z 04022G28KT 07/M09 A3015 RMK A01 T00661088  RH  033%=      5-min Rain = 0
KDR1 111120Z 03018G25KT 07/M09 A3016 RMK A01 T00661087  RH  033%=      5-min Rain = 0
KDR1 111125Z 03020G29KT 07/M09 A3016 RMK A01 T00651087  RH  033%=      5-min Rain = 0
KDR1 111130Z 03021G27KT 06/M09 A3016 RMK A01 T00641089  RH  033%=      5-min Rain = 0
KDR1 111135Z 04020G29KT 06/M09 A3017 RMK A01 T00631090  RH  033%=      5-min Rain = 0
KDR1 111140Z 03020G25KT 06/M09 A3017 RMK A01 T00621090  RH  033%=      5-min Rain = 0
KDR1 111145Z 03021G27KT 06/M09 A3017 RMK A01 T00621089  RH  033%=      5-min Rain = 0
KDR1 111150Z 03019G27KT 06/M09 A3018 RMK A01 T00601089  RH  034%=      5-min Rain = 0
KDR1 111155Z 03023KT 06/M09 A3018 RMK A01 T00581091  RH  034%=      5-min Rain = 0
KDR1 111200Z 03019G27KT 06/M09 A3019 RMK A01 T00561092  RH  034%=      5-min Rain = 0
KDR1 111205Z 03022G28KT 06/M09 A3019 RMK A01 T00551092  RH  034%=      5-min Rain = 0
KDR1 111210Z 03020G25KT 05/M09 A302 RMK A01 T00541091  RH  035%=      5-min Rain = 0
KDR1 111215Z 03021G26KT 05/M09 A302 RMK A01 T00531091  RH  035%=      5-min Rain = 0
KDR1 111220Z 03017G23KT 05/M09 A302 RMK A01 T00521090  RH  035%=      5-min Rain = 0
KDR1 111225Z 03016KT 05/M09 A302 RMK A01 T00501090  RH  036%=      5-min Rain = 0
KDR1 111230Z 03014G19KT 05/M09 A302 RMK A01 T00491090  RH  036%=      5-min Rain = 0
KDR1 111235Z 03015G20KT 05/M09 A302 RMK A01 T00481089  RH  037%=      5-min Rain = 0
KDR1 111240Z 03015G22KT 05/M09 A302 RMK A01 T00481089  RH  037%=      5-min Rain = 0
KDR1 111245Z 03015G23KT 05/M09 A3021 RMK A01 T00471089  RH  037%=      5-min Rain = 0
KDR1 111250Z 03015G20KT 05/M09 A3021 RMK A01 T00461089  RH  037%=      5-min Rain = 0
KDR1 111255Z 02012G17KT 05/M09 A3022 RMK A01 T00451089  RH  038%=      5-min Rain = 0
KDR1 111300Z 03013KT 04/M09 A3022 RMK A01 T00441090  RH  038%=      5-min Rain = 0
KDR1 111305Z 03015G20KT 04/M10 A3022 RMK A01 T00441095  RH  036%=      5-min Rain = 0
KDR1 111310Z 03013KT 04/M10 A3023 RMK A01 T00431095  RH  036%=      5-min Rain = 0
KDR1 111315Z 03014G19KT 04/M10 A3023 RMK A01 T00431097  RH  036%=      5-min Rain = 0
KDR1 111320Z 03016G22KT 04/M10 A3023 RMK A01 T00431100  RH  035%=      5-min Rain = 0
KDR1 111325Z 03013KT 04/M10 A3023 RMK A01 T00431100  RH  035%=      5-min Rain = 0
KDR1 111330Z 02015KT 04/M10 A3024 RMK A01 T00421100  RH  035%=      5-min Rain = 0
KDR1 111335Z 02015KT 04/M10 A3024 RMK A01 T00411101  RH  035%=      5-min Rain = 0
KDR1 111340Z 02013G18KT 04/M10 A3024 RMK A01 T00411101  RH  035%=      5-min Rain = 0
KDR1 111345Z 03015G21KT 04/M10 A3025 RMK A01 T00421103  RH  034%=      5-min Rain = 0
KDR1 111350Z 03015KT 04/M10 A3025 RMK A01 T00421104  RH  034%=      5-min Rain = 0
KDR1 111355Z 03015KT 04/M11 A3025 RMK A01 T00421105  RH  034%=      5-min Rain = 0
KDR1 111400Z 03015KT 04/M11 A3026 RMK A01 T00421105  RH  034%=      5-min Rain = 0
KDR1 111405Z 03015KT 04/M11 A3026 RMK A01 T00421107  RH  033%=      5-min Rain = 0
KDR1 111410Z 03014G20KT 04/M11 A3026 RMK A01 T00431108  RH  033%=      5-min Rain = 0
KDR1 111415Z 03014KT 04/M11 A3026 RMK A01 T00431109  RH  033%=      5-min Rain = 0
KDR1 111420Z 03016KT 04/M11 A3026 RMK A01 T00431112  RH  032%=      5-min Rain = 0
KDR1 111425Z 03017G22KT 04/M11 A3026 RMK A01 T00431114  RH  031%=      5-min Rain = 0
KDR1 111430Z 03017KT 04/M11 A3027 RMK A01 T00431114  RH  031%=      5-min Rain = 0
KDR1 111435Z 04017KT 04/M11 A3027 RMK A01 T00431113  RH  032%=      5-min Rain = 0
KDR1 111440Z 04017G22KT 05/M11 A3027 RMK A01 T00451111  RH  032%=      5-min Rain = 0
KDR1 111445Z 04017KT 04/M11 A3027 RMK A01 T00441109  RH  032%=      5-min Rain = 0
KDR1 111450Z 04016G21KT 04/M11 A3027 RMK A01 T00421109  RH  033%=      5-min Rain = 0
KDR1 111455Z 04015KT 04/M11 A3028 RMK A01 T00431107  RH  033%=      5-min Rain = 0
KDR1 111500Z 04017G24KT 04/M11 A3028 RMK A01 T00421107  RH  033%=      5-min Rain = 0
KDR1 111505Z 03015KT 04/M11 A3029 RMK A01 T00431106  RH  033%=      5-min Rain = 0
KDR1 111510Z 03015G20KT 04/M10 A3029 RMK A01 T00441104  RH  034%=      5-min Rain = 0
KDR1 111515Z 03018KT 04/M10 A3029 RMK A01 T00441104  RH  034%=      5-min Rain = 0
KDR1 111520Z 03018G25KT 05/M11 A303 RMK A01 T00471105  RH  033%=      5-min Rain = 0
KDR1 111525Z 03016KT 05/M10 A303 RMK A01 T00481103  RH  033%=      5-min Rain = 0
KDR1 111530Z 03015G20KT 05/M10 A303 RMK A01 T00491101  RH  033%=      5-min Rain = 0
KDR1 111535Z 02016KT 05/M10 A303 RMK A01 T00491102  RH  033%=      5-min Rain = 0
KDR1 111540Z 03018G23KT 05/M11 A303 RMK A01 T00511105  RH  032%=      5-min Rain = 0
KDR1 111545Z 03017KT 05/M11 A3031 RMK A01 T00511105  RH  032%=      5-min Rain = 0
KDR1 111550Z 04017G22KT 05/M11 A3031 RMK A01 T00531105  RH  031%=      5-min Rain = 0
KDR1 111555Z 03017KT 05/M11 A3031 RMK A01 T00521105  RH  032%=      5-min Rain = 0
KDR1 111600Z 04014KT 05/M10 A3031 RMK A01 T00521103  RH  032%=      5-min Rain = 0
KDR1 111605Z 04015KT 05/M10 A3031 RMK A01 T00511102  RH  033%=      5-min Rain = 0
KDR1 111610Z 04013KT 05/M10 A3031 RMK A01 T00531099  RH  033%=      5-min Rain = 0
KDR1 111615Z 03015KT 05/M10 A3032 RMK A01 T00541100  RH  032%=      5-min Rain = 0
KDR1 111620Z 03015G21KT 06/M10 A3032 RMK A01 T00561102  RH  032%=      5-min Rain = 0
KDR1 111625Z 03018KT 06/M11 A3032 RMK A01 T00561105  RH  031%=      5-min Rain = 0
KDR1 111630Z 03014KT 06/M10 A3032 RMK A01 T00551104  RH  031%=      5-min Rain = 0
KDR1 111635Z 03012KT 06/M10 A3032 RMK A01 T00591100  RH  031%=      5-min Rain = 0
KDR1 111640Z 03014G19KT 06/M10 A3032 RMK A01 T00631100  RH  030%=      5-min Rain = 0
KDR1 111645Z 03015KT 06/M10 A3032 RMK A01 T00591104  RH  030%=      5-min Rain = 0
KDR1 111650Z 03014KT 06/M10 A3032 RMK A01 T00611104  RH  030%=      5-min Rain = 0
KDR1 111655Z 04013G18KT 06/M10 A3032 RMK A01 T00611104  RH  030%=      5-min Rain = 0
KDR1 111700Z 04013G18KT 06/M10 A3032 RMK A01 T00621102  RH  030%=      5-min Rain = 0
KDR1 111705Z 03013G19KT 06/M10 A3032 RMK A01 T00611102  RH  030%=      5-min Rain = 0
KDR1 111710Z 04016KT 06/M11 A3032 RMK A01 T00571107  RH  030%=      5-min Rain = 0
KDR1 111715Z 03012G18KT 06/M11 A3033 RMK A01 T00561105  RH  031%=      5-min Rain = 0
KDR1 111720Z 03013G18KT 06/M11 A3033 RMK A01 T00561106  RH  030%=      5-min Rain = 0
KDR1 111725Z 03013KT 06/M11 A3033 RMK A01 T00551105  RH  031%=      5-min Rain = 0
KDR1 111730Z 02013KT 06/M11 A3033 RMK A01 T00551106  RH  031%=      5-min Rain = 0
KDR1 111735Z 03012KT 06/M10 A3034 RMK A01 T00571104  RH  031%=      5-min Rain = 0
KDR1 111740Z 02012KT 06/M10 A3034 RMK A01 T00571103  RH  031%=      5-min Rain = 0
KDR1 111745Z 02012KT 06/M11 A3034 RMK A01 T00561105  RH  031%=      5-min Rain = 0
KDR1 111750Z 03009KT 06/M10 A3034 RMK A01 T00561103  RH  031%=      5-min Rain = 0
KDR1 111755Z 02009KT 06/M10 A3034 RMK A01 T00561103  RH  031%=      5-min Rain = 0
KDR1 111800Z 03009KT 06/M10 A3034 RMK A01 T00571103  RH  031%=      5-min Rain = 0
KDR1 111805Z 04008KT 06/M10 A3034 RMK A01 T00581104  RH  030%=      5-min Rain = 0
KDR1 111810Z 03009KT 06/M10 A3034 RMK A01 T00591104  RH  030%=      5-min Rain = 0
KDR1 111815Z 01008KT 06/M10 A3034 RMK A01 T00621103  RH  030%=      5-min Rain = 0
KDR1 111820Z 03007KT 06/M10 A3034 RMK A01 T00631102  RH  030%=      5-min Rain = 0
KDR1 111825Z 03007KT 07/M10 A3034 RMK A01 T00651101  RH  030%=      5-min Rain = 0
KDR1 111830Z 02008KT 07/M10 A3034 RMK A01 T00741098  RH  029%=      5-min Rain = 0
KDR1 111835Z 03008KT 08/M10 A3034 RMK A01 T00771100  RH  028%=      5-min Rain = 0
KDR1 111840Z 03008G13KT 07/M10 A3034 RMK A01 T00731101  RH  028%=      5-min Rain = 0
KDR1 111845Z 04008KT 07/M10 A3033 RMK A01 T00741101  RH  028%=      5-min Rain = 0
KDR1 111850Z 02008KT 07/M10 A3033 RMK A01 T00721101  RH  028%=      5-min Rain = 0
KDR1 111855Z 02007G12KT 07/M10 A3033 RMK A01 T00721100  RH  029%=      5-min Rain = 0
KDR1 111900Z 04008G13KT 08/M10 A3032 RMK A01 T00761099  RH  028%=      5-min Rain = 0
KDR1 111905Z 04007KT 08/M10 A3032 RMK A01 T00831098  RH  027%=      5-min Rain = 0
KDR1 111910Z 04008G15KT 08/M10 A3032 RMK A01 T00831100  RH  027%=      5-min Rain = 0
KDR1 111915Z 05008KT 08/M10 A3032 RMK A01 T00811102  RH  027%=      5-min Rain = 0
KDR1 111920Z 03010KT 08/M10 A3031 RMK A01 T00811101  RH  027%=      5-min Rain = 0
KDR1 111925Z 01008KT 09/M10 A3031 RMK A01 T00851101  RH  026%=      5-min Rain = 0
KDR1 111930Z 02009KT 09/M10 A3031 RMK A01 T00911099  RH  025%=      5-min Rain = 0
KDR1 111935Z 03008KT 09/M10 A3031 RMK A01 T00901102  RH  025%=      5-min Rain = 0
KDR1 111940Z 02007KT 09/M10 A3031 RMK A01 T00921100  RH  025%=      5-min Rain = 0
KDR1 111945Z 02008G13KT 09/M10 A303 RMK A01 T00881101  RH  025%=      5-min Rain = 0
KDR1 111950Z 05010G15KT 09/M10 A303 RMK A01 T00901098  RH  026%=      5-min Rain = 0
KDR1 111955Z 03007KT 09/M10 A303 RMK A01 T00881099  RH  026%=      5-min Rain = 0
KDR1 112000Z 04009G14KT 10/M10 A303 RMK A01 T00951099  RH  025%=      5-min Rain = 0
KDR1 112005Z 05008KT 10/M10 A303 RMK A01 T00951098  RH  025%=      5-min Rain = 0
KDR1 112010Z 04008G13KT 10/M10 A3029 RMK A01 T00951098  RH  025%=      5-min Rain = 0
KDR1 112015Z 02008G13KT 10/M10 A3029 RMK A01 T00981100  RH  024%=      5-min Rain = 0
KDR1 112020Z 04008G13KT 10/M10 A3029 RMK A01 T01031101  RH  023%=      5-min Rain = 0
KDR1 112025Z 03007G12KT 11/M10 A3029 RMK A01 T01051101  RH  023%=      5-min Rain = 0
KDR1 112030Z 06009G15KT 11/M10 A3028 RMK A01 T01061099  RH  023%=      5-min Rain = 0
KDR1 112035Z 06011G17KT 11/M10 A3028 RMK A01 T01101101  RH  022%=      5-min Rain = 0
KDR1 112040Z 05007G13KT 10/M10 A3028 RMK A01 T01041103  RH  023%=      5-min Rain = 0
KDR1 112045Z 04008G17KT 11/M10 A3028 RMK A01 T01051101  RH  023%=      5-min Rain = 0
KDR1 112050Z 06009G14KT 10/M10 A3028 RMK A01 T01031102  RH  023%=      5-min Rain = 0
KDR1 112055Z 04010KT 11/M10 A3028 RMK A01 T01061102  RH  023%=      5-min Rain = 0
KDR1 112100Z 03009G14KT 11/M10 A3027 RMK A01 T01071103  RH  022%=      5-min Rain = 0
KDR1 112105Z 04009G14KT 10/M11 A3027 RMK A01 T01041106  RH  022%=      5-min Rain = 0
KDR1 112110Z 03008KT 10/M10 A3027 RMK A01 T01021104  RH  023%=      5-min Rain = 0
KDR1 112115Z 04008KT 11/M10 A3027 RMK A01 T01081101  RH  022%=      5-min Rain = 0
KDR1 112120Z 05012G17KT 11/M10 A3027 RMK A01 T01121101  RH  022%=      5-min Rain = 0
KDR1 112125Z 05009G16KT 10/M10 A3027 RMK A01 T01021103  RH  023%=      5-min Rain = 0
KDR1 112130Z 03012G18KT 11/M10 A3027 RMK A01 T01061101  RH  023%=      5-min Rain = 0
KDR1 112135Z 04008G13KT 10/M10 A3027 RMK A01 T01041103  RH  023%=      5-min Rain = 0
KDR1 112140Z 04006KT 11/M10 A3027 RMK A01 T01071101  RH  022%=      5-min Rain = 0
KDR1 112145Z 05007KT 11/M10 A3027 RMK A01 T01091098  RH  023%=      5-min Rain = 0
KDR1 112150Z 03010G15KT 11/M10 A3027 RMK A01 T01091102  RH  022%=      5-min Rain = 0
KDR1 112155Z 03008G14KT 11/M11 A3027 RMK A01 T01081105  RH  022%=      5-min Rain = 0
KDR1 112200Z 06007G14KT 11/M10 A3027 RMK A01 T01111104  RH  021%=      5-min Rain = 0
KDR1 112205Z 06011KT 11/M11 A3026 RMK A01 T01131105  RH  021%=      5-min Rain = 0
KDR1 112210Z 04009KT 12/M10 A3027 RMK A01 T01151102  RH  021%=      5-min Rain = 0
KDR1 112215Z 03012KT 12/M10 A3027 RMK A01 T01151100  RH  021%=      5-min Rain = 0
KDR1 112220Z 02008KT 12/M10 A3027 RMK A01 T01191099  RH  021%=      5-min Rain = 0
KDR1 112225Z 04009G16KT 11/M10 A3027 RMK A01 T01141101  RH  021%=      5-min Rain = 0
KDR1 112230Z 05008G14KT 12/M10 A3027 RMK A01 T01161101  RH  021%=      5-min Rain = 0
KDR1 112235Z 04009G15KT 11/M10 A3027 RMK A01 T01141103  RH  021%=      5-min Rain = 0
KDR1 112240Z 04008KT 11/M10 A3027 RMK A01 T01091102  RH  022%=      5-min Rain = 0
KDR1 112245Z 04006KT 11/M10 A3027 RMK A01 T01121102  RH  022%=      5-min Rain = 0
KDR1 112250Z 06006G11KT 11/M10 A3027 RMK A01 T01111103  RH  021%=      5-min Rain = 0
KDR1 112255Z 02009KT 11/M10 A3027 RMK A01 T01111102  RH  022%=      5-min Rain = 0
KDR1 112300Z 03008KT 11/M10 A3027 RMK A01 T01101101  RH  022%=      5-min Rain = 0
KDR1 112305Z 05006KT 11/M10 A3027 RMK A01 T01061103  RH  022%=      5-min Rain = 0
KDR1 112310Z 05009KT 11/M11 A3027 RMK A01 T01081105  RH  022%=      5-min Rain = 0
KDR1 112315Z 05007KT 11/M11 A3027 RMK A01 T01071106  RH  021%=      5-min Rain = 0
KDR1 112320Z 04006KT 11/M11 A3028 RMK A01 T01061106  RH  022%=      5-min Rain = 0
KDR1 112325Z 05009G14KT 11/M11 A3028 RMK A01 T01061105  RH  022%=      5-min Rain = 0
KDR1 112330Z 04010KT 11/M10 A3028 RMK A01 T01061104  RH  022%=      5-min Rain = 0
KDR1 112335Z 04007KT 11/M10 A3028 RMK A01 T01051104  RH  022%=      5-min Rain = 0
KDR1 112340Z 04008KT 11/M10 A3028 RMK A01 T01051104  RH  022%=      5-min Rain = 0
KDR1 112345Z 03007KT 11/M10 A3028 RMK A01 T01051103  RH  022%=      5-min Rain = 0
KDR1 112350Z 05007KT 10/M11 A3028 RMK A01 T01041105  RH  022%=      5-min Rain = 0
KDR1 112355Z 04007KT 10/M10 A3029 RMK A01 T01041103  RH  022%=      5-min Rain = 0
KDR1 120000Z 03008KT 10/M10 A3029 RMK A01 T01041102  RH  023%=      5-min Rain = 0
KDR1 120005Z 04009KT 10/M10 A3029 RMK A01 T01031102  RH  023%=      5-min Rain = 0
KDR1 120010Z 03010KT 10/M10 A3029 RMK A01 T01011102  RH  023%=      5-min Rain = 0
KDR1 120015Z 05011KT 10/M10 A3029 RMK A01 T00991104  RH  023%=      5-min Rain = 0
KDR1 120020Z 05011KT 10/M10 A3029 RMK A01 T00981104  RH  023%=      5-min Rain = 0
KDR1 120025Z 05010KT 10/M10 A303 RMK A01 T00971104  RH  023%=      5-min Rain = 0
KDR1 120030Z 04009KT 10/M10 A303 RMK A01 T00961104  RH  024%=      5-min Rain = 0
KDR1 120035Z 04009KT 10/M10 A303 RMK A01 T00951104  RH  024%=      5-min Rain = 0
KDR1 120040Z 05009KT 09/M10 A303 RMK A01 T00941104  RH  024%=      5-min Rain = 0
KDR1 120045Z 05008KT 09/M10 A303 RMK A01 T00931103  RH  024%=      5-min Rain = 0
KDR1 120050Z 04008KT 09/M10 A303 RMK A01 T00921103  RH  024%=      5-min Rain = 0
KDR1 120055Z 04007KT 09/M10 A3031 RMK A01 T00911102  RH  025%=      5-min Rain = 0
KDR1 120100Z 03007KT 09/M10 A3031 RMK A01 T00911102  RH  025%=      5-min Rain = 0
KDR1 120105Z 03007KT 09/M10 A3031 RMK A01 T00901102  RH  025%=      5-min Rain = 0
KDR1 120110Z 04006KT 09/M10 A3031 RMK A01 T00891102  RH  025%=      5-min Rain = 0
KDR1 120115Z 05005KT 09/M10 A3031 RMK A01 T00871101  RH  025%=      5-min Rain = 0
KDR1 120120Z 05005KT 09/M10 A3031 RMK A01 T00861101  RH  026%=      5-min Rain = 0
KDR1 120125Z 06004KT 08/M10 A3031 RMK A01 T00841101  RH  026%=      5-min Rain = 0
KDR1 120130Z 05002KT 08/M10 A3031 RMK A01 T00821101  RH  026%=      5-min Rain = 0
KDR1 120135Z 05003KT 08/M10 A3032 RMK A01 T00811101  RH  027%=      5-min Rain = 0
KDR1 120140Z 07002KT 08/M10 A3032 RMK A01 T00801100  RH  027%=      5-min Rain = 0
KDR1 120145Z 05003KT 08/M10 A3032 RMK A01 T00791099  RH  028%=      5-min Rain = 0
KDR1 120150Z 05003KT 08/M10 A3032 RMK A01 T00791097  RH  028%=      5-min Rain = 0
KDR1 120155Z 05003KT 08/M10 A3032 RMK A01 T00791097  RH  028%=      5-min Rain = 0
KDR1 120200Z 05004KT 08/M10 A3032 RMK A01 T00771097  RH  028%=      5-min Rain = 0
KDR1 120205Z 05004KT 08/M10 A3033 RMK A01 T00761097  RH  028%=      5-min Rain = 0
KDR1 120210Z 05004KT 08/M10 A3032 RMK A01 T00761098  RH  028%=      5-min Rain = 0
KDR1 120215Z 04003KT 08/M10 A3033 RMK A01 T00761099  RH  028%=      5-min Rain = 0
KDR1 120220Z 04003KT 08/M10 A3033 RMK A01 T00761100  RH  028%=      5-min Rain = 0
KDR1 120225Z 04003KT 08/M10 A3033 RMK A01 T00761101  RH  027%=      5-min Rain = 0
KDR1 120230Z 04004KT 08/M10 A3033 RMK A01 T00761100  RH  028%=      5-min Rain = 0
KDR1 120235Z 05005KT 07/M10 A3034 RMK A01 T00741097  RH  029%=      5-min Rain = 0
KDR1 120240Z 05006KT 07/M10 A3034 RMK A01 T00741097  RH  029%=      5-min Rain = 0
KDR1 120245Z 06006KT 08/M10 A3034 RMK A01 T00751099  RH  028%=      5-min Rain = 0
KDR1 120250Z 06006KT 08/M10 A3034 RMK A01 T00751100  RH  028%=      5-min Rain = 0
KDR1 120255Z 06005KT 07/M10 A3034 RMK A01 T00741100  RH  028%=      5-min Rain = 0
KDR1 120300Z 06005KT 07/M10 A3034 RMK A01 T00731100  RH  028%=      5-min Rain = 0
KDR1 120305Z 06005KT 07/M10 A3034 RMK A01 T00721100  RH  029%=      5-min Rain = 0
KDR1 120310Z 06006KT 07/M10 A3034 RMK A01 T00711099  RH  029%=      5-min Rain = 0
KDR1 120315Z 06005KT 07/M10 A3034 RMK A01 T00701098  RH  029%=      5-min Rain = 0
KDR1 120320Z 07005KT 07/M10 A3034 RMK A01 T00691098  RH  030%=      5-min Rain = 0
KDR1 120325Z 07004KT 07/M10 A3034 RMK A01 T00681097  RH  030%=      5-min Rain = 0
KDR1 120330Z 07004KT 07/M10 A3034 RMK A01 T00671096  RH  030%=      5-min Rain = 0
KDR1 120335Z 07004KT 07/M10 A3034 RMK A01 T00681095  RH  031%=      5-min Rain = 0
KDR1 120340Z 07004KT 07/M10 A3035 RMK A01 T00681096  RH  030%=      5-min Rain = 0
KDR1 120345Z 07004KT 07/M10 A3035 RMK A01 T00691096  RH  030%=      5-min Rain = 0
KDR1 120350Z 08004KT 07/M10 A3035 RMK A01 T00691096  RH  030%=      5-min Rain = 0
KDR1 120355Z 08004KT 07/M10 A3035 RMK A01 T00681096  RH  030%=      5-min Rain = 0
KDR1 120400Z 08004KT 07/M10 A3035 RMK A01 T00671096  RH  031%=      5-min Rain = 0
KDR1 120405Z 08004KT 07/M10 A3035 RMK A01 T00661096  RH  031%=      5-min Rain = 0
KDR1 120410Z 08004KT 07/M10 A3035 RMK A01 T00661097  RH  031%=      5-min Rain = 0
KDR1 120415Z 09003KT 07/M10 A3035 RMK A01 T00661097  RH  031%=      5-min Rain = 0
KDR1 120420Z 09003KT 07/M10 A3035 RMK A01 T00651097  RH  031%=      5-min Rain = 0
KDR1 120425Z 09003KT 07/M10 A3035 RMK A01 T00651097  RH  031%=      5-min Rain = 0
KDR1 120430Z 09003KT 07/M10 A3035 RMK A01 T00651098  RH  030%=      5-min Rain = 0
KDR1 120435Z 10002KT 07/M10 A3036 RMK A01 T00661100  RH  030%=      5-min Rain = 0
KDR1 120440Z 11003KT 07/M10 A3036 RMK A01 T00681101  RH  029%=      5-min Rain = 0
KDR1 120445Z 12003KT 07/M10 A3036 RMK A01 T00681101  RH  029%=      5-min Rain = 0
KDR1 120450Z 10003KT 07/M10 A3036 RMK A01 T00661100  RH  030%=      5-min Rain = 0
KDR1 120455Z 10002KT 07/M10 A3036 RMK A01 T00661100  RH  030%=      5-min Rain = 0

Page generated in 0.0089 seconds.